createdAt,value
2023-02-19T00:00:56.290Z,1.50
2023-02-19T00:01:56.281Z,1.50
2023-02-19T00:02:56.283Z,1.40
2023-02-19T00:03:56.262Z,1.70
2023-02-19T00:04:56.280Z,1.40
2023-02-19T00:05:56.242Z,1.50
2023-02-19T00:06:56.233Z,1.50
2023-02-19T00:07:56.257Z,1.50
2023-02-19T00:08:56.199Z,1.50
2023-02-19T00:09:56.199Z,1.70
2023-02-19T00:10:56.180Z,1.50
2023-02-19T00:11:56.177Z,1.50
2023-02-19T00:12:56.186Z,1.50
2023-02-19T00:13:57.113Z,1.40
2023-02-19T00:14:56.138Z,1.50
2023-02-19T00:15:56.160Z,1.40
2023-02-19T00:16:56.121Z,1.50
2023-02-19T00:17:56.128Z,1.50
2023-02-19T00:18:56.100Z,1.40
2023-02-19T00:19:56.095Z,1.40
2023-02-19T00:20:56.090Z,1.40
2023-02-19T00:21:56.069Z,1.60
2023-02-19T00:22:56.062Z,1.50
2023-02-19T00:23:56.060Z,1.50
2023-02-19T00:24:56.043Z,1.40
2023-02-19T00:26:00.990Z,1.70
2023-02-19T00:26:56.024Z,1.50
2023-02-19T00:27:56.008Z,1.40
2023-02-19T00:28:56.005Z,1.40
2023-02-19T00:29:55.992Z,1.50
2023-02-19T00:30:56.046Z,1.60
2023-02-19T00:31:56.106Z,1.30
2023-02-19T00:32:55.954Z,1.60
2023-02-19T00:33:55.959Z,1.50
2023-02-19T00:34:55.935Z,1.50
2023-02-19T00:35:55.932Z,1.30
2023-02-19T00:36:55.937Z,1.60
2023-02-19T00:37:55.916Z,1.50
2023-02-19T00:38:55.909Z,1.60
2023-02-19T00:39:55.889Z,1.60
2023-02-19T00:40:55.876Z,1.40
2023-02-19T00:41:55.875Z,1.30
2023-02-19T00:42:55.856Z,1.50
2023-02-19T00:43:55.870Z,1.50
2023-02-19T00:44:55.836Z,1.60
2023-02-19T00:45:55.828Z,1.50
2023-02-19T00:46:55.815Z,1.50
2023-02-19T00:47:55.814Z,1.50
2023-02-19T00:48:55.796Z,1.60
2023-02-19T00:49:55.799Z,1.50
2023-02-19T00:50:55.773Z,1.40
2023-02-19T00:51:55.781Z,1.40
2023-02-19T00:52:55.754Z,1.40
2023-02-19T00:53:55.756Z,1.50
2023-02-19T00:54:55.751Z,1.50
2023-02-19T00:55:55.732Z,1.50
2023-02-19T00:56:55.723Z,1.50
2023-02-19T00:57:55.715Z,1.50
2023-02-19T00:58:55.694Z,1.60
2023-02-19T00:59:55.694Z,1.50
2023-02-19T01:00:55.679Z,1.60
2023-02-19T01:01:55.714Z,1.80
2023-02-19T01:02:55.649Z,1.50
2023-02-19T01:03:55.646Z,1.50
2023-02-19T01:04:55.672Z,1.60
2023-02-19T01:05:55.637Z,1.50
2023-02-19T01:06:55.631Z,1.40
2023-02-19T01:07:55.607Z,1.40
2023-02-19T01:08:55.593Z,1.40
2023-02-19T01:09:55.593Z,1.60
2023-02-19T01:10:55.574Z,1.50
2023-02-19T01:11:55.574Z,1.40
2023-02-19T01:12:55.549Z,1.60
2023-02-19T01:13:56.132Z,1.40
2023-02-19T01:14:55.542Z,1.50
2023-02-19T01:15:55.550Z,1.30
2023-02-19T01:16:55.510Z,1.50
2023-02-19T01:17:55.506Z,1.50
2023-02-19T01:18:56.132Z,1.50
2023-02-19T01:19:55.495Z,1.40
2023-02-19T01:20:55.472Z,1.30
2023-02-19T01:21:55.467Z,1.50
2023-02-19T01:22:55.443Z,1.50
2023-02-19T01:23:55.435Z,1.40
2023-02-19T01:24:55.425Z,1.60
2023-02-19T01:25:55.425Z,1.60
2023-02-19T01:26:55.399Z,1.70
2023-02-19T01:27:55.393Z,1.50
2023-02-19T01:28:55.382Z,1.60
2023-02-19T01:29:55.377Z,1.40
2023-02-19T01:30:55.381Z,1.60
2023-02-19T01:31:55.418Z,1.40
2023-02-19T01:32:55.341Z,1.40
2023-02-19T01:33:55.434Z,1.40
2023-02-19T01:34:55.323Z,1.60
2023-02-19T01:35:55.340Z,1.50
2023-02-19T01:36:55.307Z,1.50
2023-02-19T01:37:55.294Z,1.50
2023-02-19T01:38:55.278Z,1.60
2023-02-19T01:39:55.271Z,1.40
2023-02-19T01:40:55.258Z,1.60
2023-02-19T01:41:55.263Z,1.60
2023-02-19T01:42:55.236Z,1.60
2023-02-19T01:43:55.232Z,1.40
2023-02-19T01:44:55.222Z,1.40
2023-02-19T01:45:55.217Z,1.60
2023-02-19T01:46:55.290Z,1.50
2023-02-19T01:47:55.192Z,1.50
2023-02-19T01:48:55.187Z,1.50
2023-02-19T01:49:55.167Z,1.50
2023-02-19T01:50:55.162Z,1.50
2023-02-19T01:51:55.150Z,1.50
2023-02-19T01:52:55.147Z,1.60
2023-02-19T01:53:55.127Z,1.60
2023-02-19T01:54:55.119Z,1.60
2023-02-19T01:55:55.106Z,1.40
2023-02-19T01:56:55.102Z,1.40
2023-02-19T01:57:55.090Z,1.60
2023-02-19T01:58:55.080Z,1.60
2023-02-19T01:59:55.073Z,1.60
2023-02-19T02:00:55.068Z,1.50
2023-02-19T02:01:55.087Z,1.60
2023-02-19T02:02:55.032Z,1.50
2023-02-19T02:03:55.034Z,1.60
2023-02-19T02:04:55.008Z,1.70
2023-02-19T02:05:55.013Z,1.60
2023-02-19T02:06:54.992Z,1.60
2023-02-19T02:07:54.986Z,1.40
2023-02-19T02:08:54.978Z,1.50
2023-02-19T02:09:54.961Z,1.50
2023-02-19T02:10:54.973Z,1.60
2023-02-19T02:11:54.942Z,1.50
2023-02-19T02:12:54.929Z,1.50
2023-02-19T02:13:55.651Z,1.50
2023-02-19T02:14:54.909Z,1.40
2023-02-19T02:15:54.922Z,1.60
2023-02-19T02:16:54.897Z,1.50
2023-02-19T02:17:54.884Z,1.40
2023-02-19T02:18:54.865Z,1.50
2023-02-19T02:19:54.872Z,1.50
2023-02-19T02:20:54.852Z,1.50
2023-02-19T02:21:54.840Z,1.70
2023-02-19T02:22:54.836Z,1.50
2023-02-19T02:23:54.868Z,1.60
2023-02-19T02:24:54.808Z,1.40
2023-02-19T02:25:54.797Z,1.40
2023-02-19T02:26:54.781Z,1.60
2023-02-19T02:27:54.780Z,1.50
2023-02-19T02:28:54.762Z,1.60
2023-02-19T02:29:54.771Z,1.50
2023-02-19T02:30:54.780Z,1.40
2023-02-19T02:31:54.785Z,1.60
2023-02-19T02:32:54.721Z,1.50
2023-02-19T02:33:54.808Z,1.50
2023-02-19T02:34:54.711Z,1.60
2023-02-19T02:35:54.693Z,1.30
2023-02-19T02:36:54.684Z,1.50
2023-02-19T02:37:54.674Z,1.60
2023-02-19T02:38:54.662Z,1.50
2023-02-19T02:39:54.651Z,1.50
2023-02-19T02:40:55.270Z,1.50
2023-02-19T02:41:54.640Z,1.60
2023-02-19T02:42:54.617Z,1.40
2023-02-19T02:43:54.609Z,1.40
2023-02-19T02:44:54.594Z,1.50
2023-02-19T02:45:54.829Z,1.70
2023-02-19T02:46:54.584Z,1.70
2023-02-19T02:47:54.566Z,1.60
2023-02-19T02:48:54.558Z,1.60
2023-02-19T02:49:54.549Z,1.40
2023-02-19T02:50:54.565Z,1.50
2023-02-19T02:51:54.533Z,1.50
2023-02-19T02:52:54.519Z,1.60
2023-02-19T02:53:54.504Z,1.50
2023-02-19T02:54:54.489Z,1.70
2023-02-19T02:55:54.491Z,1.30
2023-02-19T02:56:54.482Z,1.60
2023-02-19T02:57:54.462Z,1.60
2023-02-19T02:58:54.462Z,1.50
2023-02-19T02:59:54.442Z,1.40
2023-02-19T03:00:54.489Z,1.90
2023-02-19T03:01:54.430Z,1.50
2023-02-19T03:02:54.415Z,1.40
2023-02-19T03:03:54.400Z,1.50
2023-02-19T03:04:54.393Z,1.70
2023-02-19T03:05:54.379Z,1.50
2023-02-19T03:06:54.380Z,1.40
2023-02-19T03:07:54.361Z,1.50
2023-02-19T03:08:54.347Z,1.60
2023-02-19T03:09:54.348Z,1.50
2023-02-19T03:10:54.332Z,1.60
2023-02-19T03:11:54.316Z,1.60
2023-02-19T03:12:54.302Z,1.60
2023-02-19T03:13:55.175Z,1.50
2023-02-19T03:14:54.294Z,1.60
2023-02-19T03:15:54.284Z,1.50
2023-02-19T03:16:54.273Z,1.60
2023-02-19T03:17:54.257Z,1.60
2023-02-19T03:18:54.243Z,1.40
2023-02-19T03:19:54.249Z,1.60
2023-02-19T03:20:54.222Z,1.40
2023-02-19T03:21:54.222Z,1.50
2023-02-19T03:22:54.201Z,1.40
2023-02-19T03:23:54.190Z,1.50
2023-02-19T03:24:54.176Z,1.60
2023-02-19T03:25:54.176Z,1.50
2023-02-19T03:26:54.222Z,1.60
2023-02-19T03:27:54.148Z,1.50
2023-02-19T03:28:54.197Z,1.50
2023-02-19T03:29:54.127Z,1.50
2023-02-19T03:30:54.140Z,1.50
2023-02-19T03:31:54.209Z,1.50
2023-02-19T03:32:54.100Z,1.50
2023-02-19T03:33:54.178Z,1.50
2023-02-19T03:34:54.071Z,1.50
2023-02-19T03:35:54.067Z,1.50
2023-02-19T03:36:54.063Z,1.60
2023-02-19T03:37:54.065Z,1.50
2023-02-19T03:38:54.035Z,1.50
2023-02-19T03:39:54.026Z,1.50
2023-02-19T03:40:54.018Z,1.50
2023-02-19T03:41:54.000Z,1.70
2023-02-19T03:42:56.150Z,1.60
2023-02-19T03:43:53.985Z,1.60
2023-02-19T03:44:53.974Z,1.60
2023-02-19T03:45:53.996Z,1.60
2023-02-19T03:46:53.959Z,1.80
2023-02-19T03:47:53.943Z,1.60
2023-02-19T03:48:53.939Z,1.60
2023-02-19T03:49:53.914Z,1.70
2023-02-19T03:50:53.906Z,1.50
2023-02-19T03:51:53.892Z,1.50
2023-02-19T03:52:53.902Z,1.60
2023-02-19T03:53:53.889Z,1.50
2023-02-19T03:54:53.868Z,1.70
2023-02-19T03:55:53.864Z,1.50
2023-02-19T03:56:53.841Z,1.50
2023-02-19T03:57:53.840Z,1.50
2023-02-19T03:58:53.832Z,1.40
2023-02-19T03:59:53.814Z,1.60
2023-02-19T04:00:53.803Z,1.70
2023-02-19T04:01:53.860Z,1.50
2023-02-19T04:02:53.783Z,1.70
2023-02-19T04:03:53.787Z,1.70
2023-02-19T04:04:53.793Z,1.60
2023-02-19T04:05:53.767Z,1.50
2023-02-19T04:06:53.745Z,1.60
2023-02-19T04:07:53.725Z,1.60
2023-02-19T04:08:53.720Z,1.70
2023-02-19T04:09:53.704Z,1.60
2023-02-19T04:10:53.712Z,1.90
2023-02-19T04:11:53.700Z,1.50
2023-02-19T04:12:53.689Z,1.60
2023-02-19T04:13:54.195Z,1.70
2023-02-19T04:14:53.672Z,1.70
2023-02-19T04:15:53.645Z,1.70
2023-02-19T04:16:53.686Z,1.60
2023-02-19T04:17:53.622Z,1.50
2023-02-19T04:18:53.632Z,1.60
2023-02-19T04:19:53.620Z,1.40
2023-02-19T04:20:53.601Z,1.50
2023-02-19T04:21:53.579Z,1.50
2023-02-19T04:22:53.576Z,1.60
2023-02-19T04:23:53.563Z,1.60
2023-02-19T04:24:53.568Z,1.60
2023-02-19T04:25:53.537Z,1.70
2023-02-19T04:26:53.533Z,1.70
2023-02-19T04:27:53.531Z,1.50
2023-02-19T04:28:53.508Z,1.50
2023-02-19T04:29:53.505Z,1.60
2023-02-19T04:30:53.529Z,1.70
2023-02-19T04:31:53.523Z,1.60
2023-02-19T04:32:53.469Z,1.60
2023-02-19T04:33:53.522Z,1.70
2023-02-19T04:34:54.442Z,1.70
2023-02-19T04:35:53.468Z,1.60
2023-02-19T04:36:53.424Z,1.60
2023-02-19T04:37:53.407Z,1.50
2023-02-19T04:38:53.410Z,1.60
2023-02-19T04:39:53.405Z,1.60
2023-02-19T04:40:53.377Z,1.80
2023-02-19T04:41:53.362Z,1.70
2023-02-19T04:42:53.359Z,1.70
2023-02-19T04:43:53.359Z,1.60
2023-02-19T04:44:53.360Z,1.60
2023-02-19T04:45:53.413Z,1.70
2023-02-19T04:46:53.310Z,1.70
2023-02-19T04:47:53.296Z,1.60
2023-02-19T04:48:53.289Z,1.60
2023-02-19T04:49:53.292Z,1.50
2023-02-19T04:50:53.281Z,1.60
2023-02-19T04:51:53.260Z,1.60
2023-02-19T04:52:53.254Z,1.60
2023-02-19T04:53:53.249Z,1.50
2023-02-19T04:54:53.232Z,1.60
2023-02-19T04:55:53.274Z,1.60
2023-02-19T04:56:53.222Z,1.60
2023-02-19T04:57:53.204Z,1.50
2023-02-19T04:58:53.198Z,1.50
2023-02-19T04:59:53.170Z,1.50
2023-02-19T05:00:53.171Z,1.60
2023-02-19T05:01:53.243Z,1.60
2023-02-19T05:02:53.145Z,1.40
2023-02-19T05:03:53.138Z,1.50
2023-02-19T05:04:53.126Z,1.40
2023-02-19T05:05:53.111Z,1.40
2023-02-19T05:06:53.125Z,1.60
2023-02-19T05:07:53.087Z,1.60
2023-02-19T05:08:53.102Z,1.50
2023-02-19T05:09:53.069Z,1.50
2023-02-19T05:10:53.065Z,1.40
2023-02-19T05:11:53.053Z,1.60
2023-02-19T05:12:53.044Z,1.40
2023-02-19T05:13:53.700Z,1.50
2023-02-19T05:14:53.030Z,1.50
2023-02-19T05:15:53.005Z,1.50
2023-02-19T05:16:52.999Z,1.40
2023-02-19T05:17:52.984Z,1.50
2023-02-19T05:18:53.001Z,1.40
2023-02-19T05:19:52.961Z,1.50
2023-02-19T05:20:52.956Z,1.50
2023-02-19T05:21:52.946Z,1.70
2023-02-19T05:22:52.938Z,1.40
2023-02-19T05:23:52.931Z,1.50
2023-02-19T05:24:52.920Z,1.50
2023-02-19T05:25:52.910Z,1.40
2023-02-19T05:26:52.899Z,1.50
2023-02-19T05:27:52.879Z,1.40
2023-02-19T05:28:52.884Z,1.40
2023-02-19T05:29:52.869Z,1.50
2023-02-19T05:30:52.921Z,1.40
2023-02-19T05:31:53.031Z,1.50
2023-02-19T05:32:52.837Z,1.50
2023-02-19T05:33:52.835Z,1.60
2023-02-19T05:34:52.813Z,1.40
2023-02-19T05:35:52.817Z,1.40
2023-02-19T05:36:52.792Z,1.40
2023-02-19T05:37:52.779Z,1.40
2023-02-19T05:38:52.773Z,1.30
2023-02-19T05:39:52.758Z,1.50
2023-02-19T05:40:52.814Z,1.30
2023-02-19T05:41:52.746Z,1.50
2023-02-19T05:42:52.739Z,1.50
2023-02-19T05:43:52.719Z,1.50
2023-02-19T05:44:52.708Z,1.40
2023-02-19T05:45:52.707Z,1.40
2023-02-19T05:46:52.692Z,1.50
2023-02-19T05:47:52.685Z,1.70
2023-02-19T05:48:52.668Z,1.40
2023-02-19T05:49:52.658Z,1.40
2023-02-19T05:50:52.648Z,1.30
2023-02-19T05:51:52.646Z,1.30
2023-02-19T05:52:52.627Z,1.50
2023-02-19T05:53:52.615Z,1.50
2023-02-19T05:54:52.618Z,1.30
2023-02-19T05:55:52.605Z,1.50
2023-02-19T05:56:52.601Z,1.50
2023-02-19T05:57:52.575Z,1.40
2023-02-19T05:58:52.573Z,1.40
2023-02-19T05:59:52.553Z,1.40
2023-02-19T06:00:52.544Z,1.50
2023-02-19T06:01:52.531Z,1.20
2023-02-19T06:02:52.557Z,1.30
2023-02-19T06:03:54.049Z,1.30
2023-02-19T06:04:52.505Z,1.50
2023-02-19T06:05:52.498Z,1.40
2023-02-19T06:06:52.493Z,1.30
2023-02-19T06:07:52.470Z,1.50
2023-02-19T06:08:52.476Z,1.40
2023-02-19T06:09:52.459Z,1.50
2023-02-19T06:10:52.457Z,1.40
2023-02-19T06:11:52.432Z,1.40
2023-02-19T06:12:52.426Z,1.20
2023-02-19T06:13:53.222Z,1.50
2023-02-19T06:14:52.402Z,1.50
2023-02-19T06:15:52.434Z,1.30
2023-02-19T06:16:52.407Z,1.40
2023-02-19T06:17:52.372Z,1.50
2023-02-19T06:18:52.376Z,1.40
2023-02-19T06:19:52.356Z,1.30
2023-02-19T06:20:52.344Z,1.40
2023-02-19T06:21:52.345Z,1.30
2023-02-19T06:22:52.322Z,1.40
2023-02-19T06:23:52.312Z,1.40
2023-02-19T06:24:52.318Z,1.30
2023-02-19T06:25:52.288Z,1.30
2023-02-19T06:26:52.280Z,1.30
2023-02-19T06:27:52.282Z,1.50
2023-02-19T06:28:52.261Z,1.40
2023-02-19T06:29:52.257Z,1.20
2023-02-19T06:30:52.243Z,1.40
2023-02-19T06:31:52.316Z,1.30
2023-02-19T06:32:52.225Z,1.40
2023-02-19T06:33:52.225Z,1.30
2023-02-19T06:34:52.211Z,1.30
2023-02-19T06:35:52.192Z,1.40
2023-02-19T06:36:52.198Z,1.20
2023-02-19T06:37:52.175Z,1.40
2023-02-19T06:38:52.189Z,1.30
2023-02-19T06:39:52.165Z,1.40
2023-02-19T06:40:52.142Z,1.20
2023-02-19T06:41:52.138Z,1.20
2023-02-19T06:42:52.121Z,1.40
2023-02-19T06:43:52.108Z,1.30
2023-02-19T06:44:52.104Z,1.30
2023-02-19T06:45:52.175Z,1.50
2023-02-19T06:46:52.143Z,1.40
2023-02-19T06:47:52.064Z,1.30
2023-02-19T06:48:52.062Z,1.40
2023-02-19T06:49:52.066Z,1.30
2023-02-19T06:50:52.044Z,1.30
2023-02-19T06:51:52.077Z,1.30
2023-02-19T06:52:52.031Z,1.20
2023-02-19T06:53:52.026Z,1.40
2023-02-19T06:54:51.999Z,1.30
2023-02-19T06:55:51.988Z,1.40
2023-02-19T06:56:51.992Z,1.30
2023-02-19T06:57:52.003Z,1.30
2023-02-19T06:58:51.965Z,1.30
2023-02-19T06:59:52.005Z,1.20
2023-02-19T07:00:51.985Z,1.30
2023-02-19T07:01:51.952Z,1.30
2023-02-19T07:02:51.953Z,1.30
2023-02-19T07:03:51.937Z,1.40
2023-02-19T07:04:51.945Z,1.40
2023-02-19T07:05:51.878Z,1.30
2023-02-19T07:06:51.886Z,1.40
2023-02-19T07:07:51.859Z,1.40
2023-02-19T07:08:51.886Z,1.40
2023-02-19T07:09:51.845Z,1.30
2023-02-19T07:10:51.852Z,1.50
2023-02-19T07:11:51.816Z,1.40
2023-02-19T07:12:51.815Z,1.40
2023-02-19T07:13:52.740Z,1.40
2023-02-19T07:14:51.805Z,1.30
2023-02-19T07:15:52.479Z,1.40
2023-02-19T07:16:51.771Z,1.40
2023-02-19T07:17:51.753Z,1.40
2023-02-19T07:18:51.751Z,1.30
2023-02-19T07:19:51.744Z,1.30
2023-02-19T07:20:51.748Z,1.40
2023-02-19T07:21:51.725Z,1.40
2023-02-19T07:22:51.708Z,1.30
2023-02-19T07:23:51.697Z,1.30
2023-02-19T07:24:51.696Z,1.30
2023-02-19T07:25:51.669Z,1.20
2023-02-19T07:26:51.676Z,1.40
2023-02-19T07:27:51.661Z,1.30
2023-02-19T07:28:51.652Z,1.40
2023-02-19T07:29:51.629Z,1.20
2023-02-19T07:30:51.638Z,1.40
2023-02-19T07:31:51.623Z,1.40
2023-02-19T07:32:57.900Z,1.20
2023-02-19T07:33:51.598Z,1.20
2023-02-19T07:34:51.585Z,1.40
2023-02-19T07:35:51.578Z,1.30
2023-02-19T07:36:51.567Z,1.40
2023-02-19T07:37:51.552Z,1.30
2023-02-19T07:38:51.546Z,1.30
2023-02-19T07:39:51.534Z,1.30
2023-02-19T07:40:51.533Z,1.30
2023-02-19T07:41:51.511Z,1.30
2023-02-19T07:42:51.503Z,1.30
2023-02-19T07:43:51.493Z,1.20
2023-02-19T07:44:52.494Z,1.30
2023-02-19T07:45:51.554Z,1.30
2023-02-19T07:46:51.462Z,1.40
2023-02-19T07:47:51.459Z,1.30
2023-02-19T07:48:51.441Z,1.40
2023-02-19T07:49:51.438Z,1.40
2023-02-19T07:50:51.427Z,1.40
2023-02-19T07:51:51.422Z,1.30
2023-02-19T07:52:51.396Z,1.20
2023-02-19T07:53:51.391Z,1.30
2023-02-19T07:54:51.385Z,1.30
2023-02-19T07:55:51.372Z,1.30
2023-02-19T07:56:51.375Z,1.30
2023-02-19T07:57:51.352Z,1.20
2023-02-19T07:58:51.339Z,1.30
2023-02-19T07:59:51.344Z,1.30
2023-02-19T08:00:51.343Z,1.20
2023-02-19T08:01:51.325Z,1.20
2023-02-19T08:02:51.301Z,1.30
2023-02-19T08:03:51.305Z,1.40
2023-02-19T08:04:51.286Z,1.40
2023-02-19T08:05:51.280Z,1.30
2023-02-19T08:06:51.256Z,1.30
2023-02-19T08:07:51.256Z,1.30
2023-02-19T08:08:51.236Z,1.30
2023-02-19T08:09:51.237Z,1.30
2023-02-19T08:10:51.223Z,1.40
2023-02-19T08:11:51.210Z,1.40
2023-02-19T08:12:51.204Z,1.30
2023-02-19T08:13:51.790Z,1.30
2023-02-19T08:14:51.190Z,1.30
2023-02-19T08:15:51.179Z,1.30
2023-02-19T08:16:51.186Z,1.20
2023-02-19T08:17:51.161Z,1.30
2023-02-19T08:18:51.143Z,1.30
2023-02-19T08:19:51.152Z,1.30
2023-02-19T08:20:51.132Z,1.20
2023-02-19T08:21:51.121Z,1.30
2023-02-19T08:22:51.094Z,1.40
2023-02-19T08:23:51.427Z,1.30
2023-02-19T08:24:51.100Z,1.30
2023-02-19T08:25:51.068Z,1.30
2023-02-19T08:26:51.052Z,1.20
2023-02-19T08:27:51.039Z,1.20
2023-02-19T08:28:51.028Z,1.10
2023-02-19T08:29:51.037Z,1.30
2023-02-19T08:30:51.158Z,1.20
2023-02-19T08:31:51.015Z,1.30
2023-02-19T08:32:51.000Z,1.20
2023-02-19T08:33:50.988Z,1.20
2023-02-19T08:34:50.975Z,1.10
2023-02-19T08:35:50.961Z,1.20
2023-02-19T08:36:50.955Z,1.20
2023-02-19T08:37:50.943Z,1.40
2023-02-19T08:38:50.953Z,1.40
2023-02-19T08:39:50.930Z,1.10
2023-02-19T08:40:50.911Z,1.10
2023-02-19T08:41:50.919Z,1.20
2023-02-19T08:42:50.887Z,1.30
2023-02-19T08:43:50.906Z,1.30
2023-02-19T08:44:50.876Z,1.30
2023-02-19T08:45:50.886Z,1.20
2023-02-19T08:46:50.850Z,1.10
2023-02-19T08:47:50.844Z,1.30
2023-02-19T08:48:50.830Z,1.30
2023-02-19T08:49:50.820Z,1.30
2023-02-19T08:50:50.805Z,1.30
2023-02-19T08:51:50.812Z,1.30
2023-02-19T08:52:50.784Z,1.20
2023-02-19T08:53:51.410Z,1.30
2023-02-19T08:54:50.772Z,1.20
2023-02-19T08:55:50.789Z,1.40
2023-02-19T08:56:50.756Z,1.30
2023-02-19T08:57:50.759Z,1.20
2023-02-19T08:58:50.668Z,1.30
2023-02-19T08:59:50.712Z,1.10
2023-02-19T09:00:50.653Z,1.20
2023-02-19T09:01:50.640Z,1.30
2023-02-19T09:02:50.686Z,1.30
2023-02-19T09:03:50.861Z,1.10
2023-02-19T09:04:50.665Z,1.20
2023-02-19T09:05:50.614Z,1.30
2023-02-19T09:06:50.590Z,1.30
2023-02-19T09:07:50.637Z,1.20
2023-02-19T09:08:50.613Z,1.30
2023-02-19T09:09:50.607Z,1.30
2023-02-19T09:10:50.606Z,1.20
2023-02-19T09:11:50.591Z,1.30
2023-02-19T09:12:50.573Z,1.20
2023-02-19T09:13:50.595Z,1.20
2023-02-19T09:14:50.551Z,1.20
2023-02-19T09:15:50.643Z,1.30
2023-02-19T09:16:50.530Z,1.40
2023-02-19T09:17:50.524Z,1.20
2023-02-19T09:18:50.520Z,1.30
2023-02-19T09:19:50.926Z,1.20
2023-02-19T09:20:50.499Z,1.40
2023-02-19T09:21:50.488Z,1.20
2023-02-19T09:22:50.478Z,1.30
2023-02-19T09:23:50.479Z,1.30
2023-02-19T09:24:50.457Z,1.20
2023-02-19T09:25:50.465Z,1.30
2023-02-19T09:26:50.439Z,1.10
2023-02-19T09:27:50.428Z,1.10
2023-02-19T09:28:50.378Z,1.10
2023-02-19T09:29:50.354Z,1.10
2023-02-19T09:30:50.371Z,1.20
2023-02-19T09:31:50.420Z,1.40
2023-02-19T09:32:50.376Z,1.20
2023-02-19T09:33:50.372Z,1.30
2023-02-19T09:34:50.355Z,1.10
2023-02-19T09:35:50.304Z,1.20
2023-02-19T09:36:50.291Z,1.20
2023-02-19T09:37:50.276Z,1.10
2023-02-19T09:38:50.266Z,1.10
2023-02-19T09:39:50.267Z,1.20
2023-02-19T09:40:50.247Z,1.30
2023-02-19T09:41:50.234Z,1.20
2023-02-19T09:42:50.223Z,1.20
2023-02-19T09:43:50.269Z,1.10
2023-02-19T09:44:50.204Z,1.30
2023-02-19T09:45:50.198Z,1.20
2023-02-19T09:46:50.180Z,1.20
2023-02-19T09:47:50.234Z,1.20
2023-02-19T09:48:50.210Z,1.10
2023-02-19T09:49:50.230Z,1.20
2023-02-19T09:50:50.184Z,1.20
2023-02-19T09:51:50.191Z,1.10
2023-02-19T09:52:50.165Z,1.10
2023-02-19T09:53:50.923Z,1.10
2023-02-19T09:54:50.081Z,1.20
2023-02-19T09:55:50.074Z,1.20
2023-02-19T09:56:50.062Z,1.20
2023-02-19T09:57:50.117Z,1.20
2023-02-19T09:58:50.156Z,1.10
2023-02-19T09:59:50.046Z,1.10
2023-02-19T10:00:50.020Z,1.20
2023-02-19T10:01:50.064Z,1.20
2023-02-19T10:02:50.059Z,1.20
2023-02-19T10:03:50.045Z,1.10
2023-02-19T10:04:50.055Z,1.20
2023-02-19T10:05:50.030Z,1.30
2023-02-19T10:06:50.024Z,1.20
2023-02-19T10:07:50.006Z,1.30
2023-02-19T10:08:49.993Z,1.10
2023-02-19T10:09:49.995Z,1.30
2023-02-19T10:10:49.967Z,1.20
2023-02-19T10:11:49.972Z,1.20
2023-02-19T10:12:49.958Z,1.10
2023-02-19T10:13:49.955Z,1.10
2023-02-19T10:14:49.926Z,1.10
2023-02-19T10:15:49.967Z,1.20
2023-02-19T10:16:49.871Z,1.20
2023-02-19T10:17:49.900Z,1.20
2023-02-19T10:18:49.891Z,1.10
2023-02-19T10:19:49.879Z,1.20
2023-02-19T10:20:49.826Z,1.20
2023-02-19T10:21:49.805Z,1.20
2023-02-19T10:22:49.810Z,1.10
2023-02-19T10:23:49.783Z,1.20
2023-02-19T10:24:49.780Z,1.20
2023-02-19T10:25:49.770Z,1.20
2023-02-19T10:26:49.802Z,1.30
2023-02-19T10:27:49.789Z,1.20
2023-02-19T10:28:49.739Z,1.20
2023-02-19T10:29:49.725Z,1.20
2023-02-19T10:30:49.792Z,1.20
2023-02-19T10:31:49.830Z,1.20
2023-02-19T10:32:49.695Z,1.10
2023-02-19T10:33:49.685Z,1.20
2023-02-19T10:34:49.734Z,1.20
2023-02-19T10:35:49.673Z,1.20
2023-02-19T10:36:49.647Z,1.20
2023-02-19T10:37:49.670Z,1.20
2023-02-19T10:38:49.694Z,1.10
2023-02-19T10:39:49.652Z,1.20
2023-02-19T10:40:49.604Z,1.10
2023-02-19T10:41:49.656Z,1.20
2023-02-19T10:42:49.650Z,1.20
2023-02-19T10:43:49.639Z,1.20
2023-02-19T10:44:49.586Z,1.20
2023-02-19T10:45:49.559Z,1.20
2023-02-19T10:46:49.590Z,1.20
2023-02-19T10:47:49.604Z,1.10
2023-02-19T10:48:49.581Z,1.30
2023-02-19T10:49:49.585Z,1.10
2023-02-19T10:50:49.561Z,1.10
2023-02-19T10:51:49.553Z,1.10
2023-02-19T10:52:49.544Z,1.20
2023-02-19T10:53:49.968Z,1.30
2023-02-19T10:54:49.521Z,1.20
2023-02-19T10:55:49.514Z,1.10
2023-02-19T10:56:49.499Z,1.20
2023-02-19T10:57:49.454Z,1.10
2023-02-19T10:58:49.429Z,1.30
2023-02-19T10:59:49.467Z,1.10
2023-02-19T11:00:49.469Z,1.20
2023-02-19T11:01:49.480Z,1.00
2023-02-19T11:02:49.434Z,1.10
2023-02-19T11:03:49.514Z,1.10
2023-02-19T11:04:49.372Z,1.30
2023-02-19T11:05:49.354Z,1.10
2023-02-19T11:06:49.393Z,1.10
2023-02-19T11:07:49.389Z,1.20
2023-02-19T11:08:49.382Z,1.20
2023-02-19T11:09:49.377Z,1.10
2023-02-19T11:10:49.361Z,1.20
2023-02-19T11:11:49.350Z,1.20
2023-02-19T11:12:49.292Z,1.20
2023-02-19T11:13:49.318Z,1.20
2023-02-19T11:14:49.257Z,1.30
2023-02-19T11:15:49.309Z,1.10
2023-02-19T11:16:49.288Z,1.00
2023-02-19T11:17:49.293Z,1.20
2023-02-19T11:18:49.348Z,1.10
2023-02-19T11:19:49.273Z,1.10
2023-02-19T11:20:49.198Z,1.20
2023-02-19T11:21:49.204Z,1.20
2023-02-19T11:22:49.253Z,1.10
2023-02-19T11:23:49.197Z,1.20
2023-02-19T11:24:49.229Z,1.10
2023-02-19T11:25:49.209Z,1.20
2023-02-19T11:26:49.185Z,1.30
2023-02-19T11:27:49.183Z,1.10
2023-02-19T11:28:49.165Z,1.10
2023-02-19T11:29:49.128Z,1.20
2023-02-19T11:30:49.141Z,1.10
2023-02-19T11:31:49.179Z,1.20
2023-02-19T11:32:49.074Z,1.10
2023-02-19T11:33:49.070Z,1.10
2023-02-19T11:34:49.120Z,1.30
2023-02-19T11:35:49.097Z,1.20
2023-02-19T11:36:49.053Z,1.10
2023-02-19T11:37:49.088Z,1.10
2023-02-19T11:38:49.063Z,1.10
2023-02-19T11:39:49.062Z,1.20
2023-02-19T11:40:49.042Z,1.10
2023-02-19T11:41:49.073Z,1.20
2023-02-19T11:42:49.026Z,1.00
2023-02-19T11:43:49.057Z,1.00
2023-02-19T11:44:49.003Z,1.10
2023-02-19T11:45:49.000Z,1.20
2023-02-19T11:46:49.067Z,1.10
2023-02-19T11:47:48.998Z,1.10
2023-02-19T11:48:48.974Z,1.10
2023-02-19T11:49:48.928Z,1.10
2023-02-19T11:50:48.900Z,1.00
2023-02-19T11:51:52.405Z,1.20
2023-02-19T11:52:48.923Z,1.10
2023-02-19T11:53:49.966Z,1.20
2023-02-19T11:54:48.857Z,1.10
2023-02-19T11:55:48.891Z,1.10
2023-02-19T11:56:48.845Z,1.10
2023-02-19T11:57:48.838Z,1.00
2023-02-19T11:58:48.874Z,1.30
2023-02-19T11:59:48.813Z,1.10
2023-02-19T12:00:48.794Z,1.10
2023-02-19T12:01:48.798Z,1.20
2023-02-19T12:02:48.783Z,1.10
2023-02-19T12:03:48.804Z,1.10
2023-02-19T12:04:48.835Z,1.20
2023-02-19T12:05:48.782Z,1.20
2023-02-19T12:06:48.778Z,1.20
2023-02-19T12:07:48.722Z,1.10
2023-02-19T12:08:48.723Z,1.20
2023-02-19T12:09:48.694Z,1.20
2023-02-19T12:10:48.682Z,1.10
2023-02-19T12:11:48.686Z,1.20
2023-02-19T12:12:48.658Z,1.10
2023-02-19T12:13:49.361Z,1.10
2023-02-19T12:14:48.646Z,1.00
2023-02-19T12:15:48.678Z,1.10
2023-02-19T12:16:48.703Z,1.10
2023-02-19T12:17:48.655Z,1.10
2023-02-19T12:18:48.717Z,1.00
2023-02-19T12:19:48.645Z,1.10
2023-02-19T12:20:48.628Z,1.20
2023-02-19T12:21:48.574Z,1.10
2023-02-19T12:22:48.590Z,1.10
2023-02-19T12:23:48.547Z,1.00
2023-02-19T12:24:48.589Z,1.10
2023-02-19T12:25:48.579Z,1.10
2023-02-19T12:26:48.577Z,1.10
2023-02-19T12:27:48.554Z,1.10
2023-02-19T12:28:48.558Z,1.00
2023-02-19T12:29:48.530Z,1.20
2023-02-19T12:30:48.587Z,1.10
2023-02-19T12:31:48.540Z,1.00
2023-02-19T12:32:48.505Z,1.10
2023-02-19T12:33:48.502Z,1.00
2023-02-19T12:34:48.495Z,1.00
2023-02-19T12:35:48.469Z,1.10
2023-02-19T12:36:50.614Z,1.00
2023-02-19T12:37:48.476Z,1.20
2023-02-19T12:38:48.455Z,1.00
2023-02-19T12:39:48.388Z,1.00
2023-02-19T12:40:48.369Z,1.00
2023-02-19T12:41:48.361Z,1.10
2023-02-19T12:42:50.744Z,1.00
2023-02-19T12:43:48.397Z,1.10
2023-02-19T12:44:48.392Z,1.00
2023-02-19T12:45:48.388Z,1.20
2023-02-19T12:46:48.362Z,1.00
2023-02-19T12:47:48.355Z,1.00
2023-02-19T12:48:48.353Z,1.00
2023-02-19T12:49:48.282Z,1.10
2023-02-19T12:50:48.268Z,1.00
2023-02-19T12:51:48.279Z,1.10
2023-02-19T12:52:48.250Z,1.10
2023-02-19T12:53:48.311Z,1.10
2023-02-19T12:54:48.247Z,1.20
2023-02-19T12:55:48.283Z,1.10
2023-02-19T12:56:48.273Z,1.10
2023-02-19T12:57:48.248Z,1.10
2023-02-19T12:58:48.340Z,1.30
2023-02-19T12:59:48.237Z,1.20
2023-02-19T13:00:50.356Z,1.10
2023-02-19T13:01:48.223Z,1.00
2023-02-19T13:02:48.209Z,1.10
2023-02-19T13:03:48.196Z,1.20
2023-02-19T13:04:48.190Z,1.00
2023-02-19T13:05:48.174Z,1.10
2023-02-19T13:06:48.172Z,1.20
2023-02-19T13:07:48.148Z,1.10
2023-02-19T13:09:05.264Z,1.00
2023-02-19T13:09:48.142Z,1.00
2023-02-19T13:10:48.125Z,1.20
2023-02-19T13:11:48.117Z,1.10
2023-02-19T13:12:48.107Z,1.10
2023-02-19T13:13:48.989Z,1.10
2023-02-19T13:14:48.082Z,1.10
2023-02-19T13:15:48.077Z,1.00
2023-02-19T13:16:48.091Z,1.10
2023-02-19T13:17:48.055Z,1.10
2023-02-19T13:18:49.043Z,1.00